Welcome to BabcockFarms new weather site...

Visit our other weather sites:

Template documentation
and downloads

And another site



There are no active watches, warnings or advisories

Nearby METAR Reports

   
KAVP - Albrightsville, PA
Updated: Jul 16 2018 8:54 am
Clear  
Clear  
   Wind: WSW 8.1 mph
Wind: WSW 8.1 mph
Temperature: 80.6°F
Heat Index: 84.2°F
Dew Point: 71.6°F
Humidity: 74%
Barometer: 30.02 inHg
Clouds: Clear
Visibility: 8 mi
Cloud details: Clear
KAVP 161354Z 25007KT 8SM CLR 27/22 A3002 RMK AO2 SLP156 T02670222
KIWA - Apache Junction, AZ
Updated: Jul 16 2018 8:47 am
Mostly Cloudy  
Mostly Cloudy  
   Wind: SE 4.6 mph
Wind: SE 4.6 mph
Temperature: 86°F
Heat Index: 87.8°F
Dew Point: 66.2°F
Humidity: 52%
Barometer: 29.96 inHg
Clouds: Mostly Cloudy
Visibility: 30 mi
Cloud details: Partly Cloudy 3353 m,
Mostly Cloudy 6096 m
KIWA 161347Z 13004KT 30SM SCT110 BKN200 30/19 A2996
KPKB - Blue Rock, OH
Updated: Jul 16 2018 8:53 am
Few Clouds  
Few Clouds  
   Wind: Calm
Wind: Calm
Temperature: 78.8°F
Dew Point: 69.8°F
Humidity: 74%
Barometer: 30.06 inHg
Clouds: Few Clouds
Visibility: 10 mi
Cloud details: Few Clouds 1829 m
KPKB 161353Z 00000KT 10SM FEW060 26/21 A3006 RMK AO2 SLP168 T02610211 $
KHVN - Branford, CT
Updated: Jul 16 2018 8:53 am
Clear  
Clear  
   Wind: South 5.8 mph
Wind: South 5.8 mph
Temperature: 78.8°F
Dew Point: 73.4°F
Humidity: 84%
Barometer: 29.99 inHg
Clouds: Clear
Visibility: 9 mi
Cloud details: Clear
KHVN 161353Z 17005KT 9SM CLR 26/23 A2999 RMK AO2 SLP156 T02610228
KPHX - Carefree, AZ
Updated: Jul 16 2018 8:51 am
Mostly Cloudy  
Mostly Cloudy  
   Wind: East 8.1 mph
Wind: East 8.1 mph
Temperature: 84.2°F
Heat Index: 87.8°F
Dew Point: 69.8°F
Humidity: 62%
Barometer: 29.91 inHg
Clouds: Mostly Cloudy
Visibility: 10 mi
Cloud details: Mostly Cloudy 3658 m,
Mostly Cloudy 4877 m,
Mostly Cloudy 5791 m,
Mostly Cloudy 7010 m
KPHX 161351Z 10007KT 10SM BKN120 BKN160 BKN190 BKN230 29/21 A2991 RMK AO2 SLP107 SHRA DSNT W T02940206
 

Script developed by  Saratoga-weather.org Adapted for the template by  Weerstation Leuven